sensor_id;sensor_type;location;lat;lon;timestamp;temperature;humidity
7206;DHT22;3644;53.480;10.004;2022-09-01T00:00:22;16.30;99.90
7206;DHT22;3644;53.480;10.004;2022-09-01T00:02:54;16.30;99.90
7206;DHT22;3644;53.480;10.004;2022-09-01T00:05:19;16.30;99.90
7206;DHT22;3644;53.480;10.004;2022-09-01T00:07:45;16.30;99.90
7206;DHT22;3644;53.480;10.004;2022-09-01T00:10:11;16.30;99.90
7206;DHT22;3644;53.480;10.004;2022-09-01T00:12:37;16.20;99.90
7206;DHT22;3644;53.480;10.004;2022-09-01T00:15:04;16.20;99.90
7206;DHT22;3644;53.480;10.004;2022-09-01T00:17:30;16.20;99.90
7206;DHT22;3644;53.480;10.004;2022-09-01T00:19:56;16.10;99.90
7206;DHT22;3644;53.480;10.004;2022-09-01T00:22:22;16.00;99.90
7206;DHT22;3644;53.480;10.004;2022-09-01T00:24:48;16.10;99.90
7206;DHT22;3644;53.480;10.004;2022-09-01T00:27:13;16.10;99.90
7206;DHT22;3644;53.480;10.004;2022-09-01T00:29:39;16.10;99.90
7206;DHT22;3644;53.480;10.004;2022-09-01T00:32:04;16.10;99.90
7206;DHT22;3644;53.480;10.004;2022-09-01T00:34:30;16.00;99.90
7206;DHT22;3644;53.480;10.004;2022-09-01T00:36:55;16.00;99.90
7206;DHT22;3644;53.480;10.004;2022-09-01T00:39:21;16.00;99.90
7206;DHT22;3644;53.480;10.004;2022-09-01T00:41:47;16.00;99.90
7206;DHT22;3644;53.480;10.004;2022-09-01T00:44:17;16.00;99.90
7206;DHT22;3644;53.480;10.004;2022-09-01T00:46:48;16.00;99.90
7206;DHT22;3644;53.480;10.004;2022-09-01T00:49:21;16.00;99.90
7206;DHT22;3644;53.480;10.004;2022-09-01T00:51:51;16.00;99.90
7206;DHT22;3644;53.480;10.004;2022-09-01T00:54:26;16.00;99.90
7206;DHT22;3644;53.480;10.004;2022-09-01T00:56:53;15.90;99.90
7206;DHT22;3644;53.480;10.004;2022-09-01T00:59:21;15.90;99.90
7206;DHT22;3644;53.480;10.004;2022-09-01T01:01:48;15.80;99.90
7206;DHT22;3644;53.480;10.004;2022-09-01T01:04:13;15.80;99.90
7206;DHT22;3644;53.480;10.004;2022-09-01T01:06:49;15.70;99.90
7206;DHT22;3644;53.480;10.004;2022-09-01T01:09:24;15.70;99.90
7206;DHT22;3644;53.480;10.004;2022-09-01T01:11:50;15.60;99.90
7206;DHT22;3644;53.480;10.004;2022-09-01T01:14:17;15.70;99.90
7206;DHT22;3644;53.480;10.004;2022-09-01T01:16:46;15.70;99.90
7206;DHT22;3644;53.480;10.004;2022-09-01T01:22:21;15.70;99.90
7206;DHT22;3644;53.480;10.004;2022-09-01T01:25:09;15.60;99.90
7206;DHT22;3644;53.480;10.004;2022-09-01T01:27:37;15.60;99.90
7206;DHT22;3644;53.480;10.004;2022-09-01T01:30:04;15.50;99.90
7206;DHT22;3644;53.480;10.004;2022-09-01T01:32:34;15.50;99.90
7206;DHT22;3644;53.480;10.004;2022-09-01T01:35:00;15.50;99.90
7206;DHT22;3644;53.480;10.004;2022-09-01T01:37:28;15.40;99.90
7206;DHT22;3644;53.480;10.004;2022-09-01T01:39:53;15.40;99.90
7206;DHT22;3644;53.480;10.004;2022-09-01T01:42:19;15.40;99.90
7206;DHT22;3644;53.480;10.004;2022-09-01T01:44:44;15.40;99.90
7206;DHT22;3644;53.480;10.004;2022-09-01T01:47:13;15.30;99.90
7206;DHT22;3644;53.480;10.004;2022-09-01T01:49:40;15.30;99.90
7206;DHT22;3644;53.480;10.004;2022-09-01T01:52:08;15.30;99.90
7206;DHT22;3644;53.480;10.004;2022-09-01T01:54:34;15.30;99.90
7206;DHT22;3644;53.480;10.004;2022-09-01T01:57:01;15.30;99.90
7206;DHT22;3644;53.480;10.004;2022-09-01T01:59:28;15.30;99.90
7206;DHT22;3644;53.480;10.004;2022-09-01T02:01:54;15.20;99.90
7206;DHT22;3644;53.480;10.004;2022-09-01T02:04:20;15.20;99.90
7206;DHT22;3644;53.480;10.004;2022-09-01T02:06:48;15.20;99.90
7206;DHT22;3644;53.480;10.004;2022-09-01T02:09:16;15.20;99.90
7206;DHT22;3644;53.480;10.004;2022-09-01T02:11:42;15.10;99.90
7206;DHT22;3644;53.480;10.004;2022-09-01T02:14:10;15.10;99.90
7206;DHT22;3644;53.480;10.004;2022-09-01T02:16:38;15.00;99.90
7206;DHT22;3644;53.480;10.004;2022-09-01T02:19:05;15.00;99.90
7206;DHT22;3644;53.480;10.004;2022-09-01T02:21:32;15.00;99.90
7206;DHT22;3644;53.480;10.004;2022-09-01T02:24:03;15.00;99.90
7206;DHT22;3644;53.480;10.004;2022-09-01T02:26:32;15.00;99.90
7206;DHT22;3644;53.480;10.004;2022-09-01T02:29:03;15.00;99.90
7206;DHT22;3644;53.480;10.004;2022-09-01T02:31:32;15.00;99.90
7206;DHT22;3644;53.480;10.004;2022-09-01T02:34:00;14.90;99.90
7206;DHT22;3644;53.480;10.004;2022-09-01T02:36:26;14.90;99.90
7206;DHT22;3644;53.480;10.004;2022-09-01T02:38:53;14.90;99.90
7206;DHT22;3644;53.480;10.004;2022-09-01T02:41:18;14.80;99.90
7206;DHT22;3644;53.480;10.004;2022-09-01T02:43:45;14.80;99.90
7206;DHT22;3644;53.480;10.004;2022-09-01T02:46:12;14.70;99.90
7206;DHT22;3644;53.480;10.004;2022-09-01T02:48:41;14.70;99.90
7206;DHT22;3644;53.480;10.004;2022-09-01T02:51:12;14.70;99.90
7206;DHT22;3644;53.480;10.004;2022-09-01T02:53:39;14.60;99.90
7206;DHT22;3644;53.480;10.004;2022-09-01T02:56:08;14.70;99.90
7206;DHT22;3644;53.480;10.004;2022-09-01T02:58:37;14.70;99.90
7206;DHT22;3644;53.480;10.004;2022-09-01T03:01:19;14.70;99.90
7206;DHT22;3644;53.480;10.004;2022-09-01T03:03:51;14.70;99.90
7206;DHT22;3644;53.480;10.004;2022-09-01T03:06:18;14.60;99.90
7206;DHT22;3644;53.480;10.004;2022-09-01T03:08:46;14.70;99.90
7206;DHT22;3644;53.480;10.004;2022-09-01T03:11:12;14.60;99.90
7206;DHT22;3644;53.480;10.004;2022-09-01T03:13:39;14.60;99.90
7206;DHT22;3644;53.480;10.004;2022-09-01T03:16:06;14.60;99.90
7206;DHT22;3644;53.480;10.004;2022-09-01T03:18:32;14.60;99.90
7206;DHT22;3644;53.480;10.004;2022-09-01T03:20:58;14.50;99.90
7206;DHT22;3644;53.480;10.004;2022-09-01T03:23:24;14.50;99.90
7206;DHT22;3644;53.480;10.004;2022-09-01T03:25:51;14.50;99.90
7206;DHT22;3644;53.480;10.004;2022-09-01T03:28:17;14.50;99.90
7206;DHT22;3644;53.480;10.004;2022-09-01T03:30:48;14.40;99.90
7206;DHT22;3644;53.480;10.004;2022-09-01T03:33:15;14.40;99.90
7206;DHT22;3644;53.480;10.004;2022-09-01T03:35:42;14.30;99.90
7206;DHT22;3644;53.480;10.004;2022-09-01T03:38:08;14.30;99.90
7206;DHT22;3644;53.480;10.004;2022-09-01T03:40:35;14.30;99.90
7206;DHT22;3644;53.480;10.004;2022-09-01T03:43:05;14.30;99.90
7206;DHT22;3644;53.480;10.004;2022-09-01T03:45:31;14.30;99.90
7206;DHT22;3644;53.480;10.004;2022-09-01T03:48:03;14.20;99.90
7206;DHT22;3644;53.480;10.004;2022-09-01T03:50:35;14.20;99.90
7206;DHT22;3644;53.480;10.004;2022-09-01T03:53:06;14.10;99.90
7206;DHT22;3644;53.480;10.004;2022-09-01T03:55:33;14.10;99.90
7206;DHT22;3644;53.480;10.004;2022-09-01T03:58:04;14.20;99.90
7206;DHT22;3644;53.480;10.004;2022-09-01T04:00:32;14.10;99.90
7206;DHT22;3644;53.480;10.004;2022-09-01T04:03:01;14.10;99.90
7206;DHT22;3644;53.480;10.004;2022-09-01T04:05:29;14.10;99.90
7206;DHT22;3644;53.480;10.004;2022-09-01T04:07:57;14.10;99.90
7206;DHT22;3644;53.480;10.004;2022-09-01T04:10:23;14.00;99.90
7206;DHT22;3644;53.480;10.004;2022-09-01T04:12:49;14.00;99.90
7206;DHT22;3644;53.480;10.004;2022-09-01T04:15:16;14.00;99.90
7206;DHT22;3644;53.480;10.004;2022-09-01T04:17:43;14.00;99.90
7206;DHT22;3644;53.480;10.004;2022-09-01T04:20:27;14.00;99.90
7206;DHT22;3644;53.480;10.004;2022-09-01T04:22:53;13.90;99.90
7206;DHT22;3644;53.480;10.004;2022-09-01T04:25:20;14.00;99.90
7206;DHT22;3644;53.480;10.004;2022-09-01T04:27:52;13.90;99.90
7206;DHT22;3644;53.480;10.004;2022-09-01T04:30:22;13.90;99.90
7206;DHT22;3644;53.480;10.004;2022-09-01T04:32:51;13.90;99.90
7206;DHT22;3644;53.480;10.004;2022-09-01T04:35:20;13.90;99.90
7206;DHT22;3644;53.480;10.004;2022-09-01T04:37:52;13.90;99.90
7206;DHT22;3644;53.480;10.004;2022-09-01T04:40:18;13.90;99.90
7206;DHT22;3644;53.480;10.004;2022-09-01T04:42:47;13.90;99.90
7206;DHT22;3644;53.480;10.004;2022-09-01T04:45:13;13.90;99.90
7206;DHT22;3644;53.480;10.004;2022-09-01T04:47:40;13.80;99.90
7206;DHT22;3644;53.480;10.004;2022-09-01T04:50:10;13.80;99.90
7206;DHT22;3644;53.480;10.004;2022-09-01T04:52:42;13.80;99.90
7206;DHT22;3644;53.480;10.004;2022-09-01T04:55:10;13.80;99.90
7206;DHT22;3644;53.480;10.004;2022-09-01T04:57:47;13.80;99.90
7206;DHT22;3644;53.480;10.004;2022-09-01T05:00:18;13.80;99.90
7206;DHT22;3644;53.480;10.004;2022-09-01T05:02:49;13.80;99.90
7206;DHT22;3644;53.480;10.004;2022-09-01T05:05:17;13.80;99.90
7206;DHT22;3644;53.480;10.004;2022-09-01T05:07:43;13.90;99.90
7206;DHT22;3644;53.480;10.004;2022-09-01T05:10:08;13.90;99.90
7206;DHT22;3644;53.480;10.004;2022-09-01T05:12:34;13.90;99.90
7206;DHT22;3644;53.480;10.004;2022-09-01T05:15:00;13.90;99.90
7206;DHT22;3644;53.480;10.004;2022-09-01T05:17:31;13.90;99.90
7206;DHT22;3644;53.480;10.004;2022-09-01T05:19:57;13.90;99.90
7206;DHT22;3644;53.480;10.004;2022-09-01T05:22:23;14.00;99.90
7206;DHT22;3644;53.480;10.004;2022-09-01T05:24:50;14.00;99.90
7206;DHT22;3644;53.480;10.004;2022-09-01T05:27:16;14.10;99.90
7206;DHT22;3644;53.480;10.004;2022-09-01T05:29:43;14.10;99.90
7206;DHT22;3644;53.480;10.004;2022-09-01T05:32:11;14.10;99.90
7206;DHT22;3644;53.480;10.004;2022-09-01T05:34:38;14.20;99.90
7206;DHT22;3644;53.480;10.004;2022-09-01T05:37:04;14.10;99.90
7206;DHT22;3644;53.480;10.004;2022-09-01T05:39:31;14.10;99.90
7206;DHT22;3644;53.480;10.004;2022-09-01T05:41:58;14.10;99.90
7206;DHT22;3644;53.480;10.004;2022-09-01T05:44:23;14.10;99.90
7206;DHT22;3644;53.480;10.004;2022-09-01T05:46:49;14.10;99.90
7206;DHT22;3644;53.480;10.004;2022-09-01T05:49:15;14.20;99.90
7206;DHT22;3644;53.480;10.004;2022-09-01T05:51:45;14.30;99.90
7206;DHT22;3644;53.480;10.004;2022-09-01T05:54:15;14.30;99.90
7206;DHT22;3644;53.480;10.004;2022-09-01T05:56:41;14.30;99.90
7206;DHT22;3644;53.480;10.004;2022-09-01T05:59:08;14.40;99.90
7206;DHT22;3644;53.480;10.004;2022-09-01T06:01:35;14.50;99.90
7206;DHT22;3644;53.480;10.004;2022-09-01T06:04:05;14.60;99.90
7206;DHT22;3644;53.480;10.004;2022-09-01T06:06:38;14.60;99.90
7206;DHT22;3644;53.480;10.004;2022-09-01T06:09:07;14.70;99.90
7206;DHT22;3644;53.480;10.004;2022-09-01T06:11:33;14.70;99.90
7206;DHT22;3644;53.480;10.004;2022-09-01T06:14:00;14.80;99.90
7206;DHT22;3644;53.480;10.004;2022-09-01T06:16:26;14.90;99.90
7206;DHT22;3644;53.480;10.004;2022-09-01T06:18:54;15.00;99.90
7206;DHT22;3644;53.480;10.004;2022-09-01T06:21:21;15.10;99.90
7206;DHT22;3644;53.480;10.004;2022-09-01T06:23:50;15.20;99.90
7206;DHT22;3644;53.480;10.004;2022-09-01T06:26:19;15.20;99.90
7206;DHT22;3644;53.480;10.004;2022-09-01T06:28:45;15.40;99.90
7206;DHT22;3644;53.480;10.004;2022-09-01T06:31:12;15.40;99.90
7206;DHT22;3644;53.480;10.004;2022-09-01T06:33:39;15.40;99.90
7206;DHT22;3644;53.480;10.004;2022-09-01T06:36:05;15.70;99.90
7206;DHT22;3644;53.480;10.004;2022-09-01T06:38:34;15.70;99.90
7206;DHT22;3644;53.480;10.004;2022-09-01T06:41:05;15.70;99.90
7206;DHT22;3644;53.480;10.004;2022-09-01T06:43:40;16.00;99.90
7206;DHT22;3644;53.480;10.004;2022-09-01T06:46:07;16.00;99.90
7206;DHT22;3644;53.480;10.004;2022-09-01T06:48:34;16.00;99.90
7206;DHT22;3644;53.480;10.004;2022-09-01T06:51:01;16.10;99.90
7206;DHT22;3644;53.480;10.004;2022-09-01T06:53:28;16.30;99.90
7206;DHT22;3644;53.480;10.004;2022-09-01T06:55:55;16.30;99.90
7206;DHT22;3644;53.480;10.004;2022-09-01T06:58:20;16.50;99.90
7206;DHT22;3644;53.480;10.004;2022-09-01T07:00:46;16.60;99.90
7206;DHT22;3644;53.480;10.004;2022-09-01T07:03:14;16.60;99.90
7206;DHT22;3644;53.480;10.004;2022-09-01T07:05:41;16.70;99.90
7206;DHT22;3644;53.480;10.004;2022-09-01T07:08:10;16.70;99.90
7206;DHT22;3644;53.480;10.004;2022-09-01T07:10:43;16.80;99.90
7206;DHT22;3644;53.480;10.004;2022-09-01T07:13:19;16.90;99.90
7206;DHT22;3644;53.480;10.004;2022-09-01T07:15:51;16.90;99.90
7206;DHT22;3644;53.480;10.004;2022-09-01T07:18:21;16.90;99.90
7206;DHT22;3644;53.480;10.004;2022-09-01T07:20:49;16.90;99.90
7206;DHT22;3644;53.480;10.004;2022-09-01T07:23:15;16.90;99.90
7206;DHT22;3644;53.480;10.004;2022-09-01T07:25:44;17.00;99.90
7206;DHT22;3644;53.480;10.004;2022-09-01T07:28:13;17.00;99.90
7206;DHT22;3644;53.480;10.004;2022-09-01T07:30:49;17.20;99.90
7206;DHT22;3644;53.480;10.004;2022-09-01T07:33:17;17.20;99.90
7206;DHT22;3644;53.480;10.004;2022-09-01T07:35:45;17.30;99.90
7206;DHT22;3644;53.480;10.004;2022-09-01T07:38:11;17.40;99.90
7206;DHT22;3644;53.480;10.004;2022-09-01T07:40:39;17.50;99.90
7206;DHT22;3644;53.480;10.004;2022-09-01T07:43:25;17.70;99.90
7206;DHT22;3644;53.480;10.004;2022-09-01T07:45:55;17.80;99.90
7206;DHT22;3644;53.480;10.004;2022-09-01T07:48:25;17.80;99.90
7206;DHT22;3644;53.480;10.004;2022-09-01T07:50:53;17.90;99.90
7206;DHT22;3644;53.480;10.004;2022-09-01T07:53:24;17.90;99.90
7206;DHT22;3644;53.480;10.004;2022-09-01T07:55:52;18.10;99.90
7206;DHT22;3644;53.480;10.004;2022-09-01T07:58:22;18.10;99.90
7206;DHT22;3644;53.480;10.004;2022-09-01T08:00:48;18.20;99.90
7206;DHT22;3644;53.480;10.004;2022-09-01T08:03:16;18.30;99.90
7206;DHT22;3644;53.480;10.004;2022-09-01T08:05:42;18.40;99.90
7206;DHT22;3644;53.480;10.004;2022-09-01T08:08:08;18.50;99.90
7206;DHT22;3644;53.480;10.004;2022-09-01T08:10:37;18.50;99.90
7206;DHT22;3644;53.480;10.004;2022-09-01T08:13:02;18.70;99.90
7206;DHT22;3644;53.480;10.004;2022-09-01T08:15:28;18.70;99.90
7206;DHT22;3644;53.480;10.004;2022-09-01T08:17:54;18.70;99.90
7206;DHT22;3644;53.480;10.004;2022-09-01T08:20:19;18.90;99.90
7206;DHT22;3644;53.480;10.004;2022-09-01T08:22:45;19.00;99.90
7206;DHT22;3644;53.480;10.004;2022-09-01T08:25:10;19.10;99.90
7206;DHT22;3644;53.480;10.004;2022-09-01T08:27:37;19.10;99.90
7206;DHT22;3644;53.480;10.004;2022-09-01T08:30:08;19.10;99.90
7206;DHT22;3644;53.480;10.004;2022-09-01T08:32:34;19.00;99.90
7206;DHT22;3644;53.480;10.004;2022-09-01T08:35:00;19.10;99.90
7206;DHT22;3644;53.480;10.004;2022-09-01T08:37:26;19.20;99.90
7206;DHT22;3644;53.480;10.004;2022-09-01T08:39:52;19.40;99.90
7206;DHT22;3644;53.480;10.004;2022-09-01T08:42:39;19.50;99.90
7206;DHT22;3644;53.480;10.004;2022-09-01T08:45:31;19.50;99.90
7206;DHT22;3644;53.480;10.004;2022-09-01T08:48:13;19.70;99.90
7206;DHT22;3644;53.480;10.004;2022-09-01T08:50:40;19.70;99.90
7206;DHT22;3644;53.480;10.004;2022-09-01T08:53:25;19.70;99.90
7206;DHT22;3644;53.480;10.004;2022-09-01T08:55:55;19.80;99.90
7206;DHT22;3644;53.480;10.004;2022-09-01T08:58:21;20.00;99.90
7206;DHT22;3644;53.480;10.004;2022-09-01T09:00:54;20.00;99.90
7206;DHT22;3644;53.480;10.004;2022-09-01T09:03:41;20.20;99.90
7206;DHT22;3644;53.480;10.004;2022-09-01T09:06:16;20.20;99.90
7206;DHT22;3644;53.480;10.004;2022-09-01T09:08:59;20.30;99.90
7206;DHT22;3644;53.480;10.004;2022-09-01T09:16:53;20.20;99.90
7206;DHT22;3644;53.480;10.004;2022-09-01T09:19:30;20.20;99.90
7206;DHT22;3644;53.480;10.004;2022-09-01T09:21:58;20.40;99.90
7206;DHT22;3644;53.480;10.004;2022-09-01T09:27:18;20.70;99.90
7206;DHT22;3644;53.480;10.004;2022-09-01T09:29:52;20.50;99.90
7206;DHT22;3644;53.480;10.004;2022-09-01T09:32:20;20.50;99.90
7206;DHT22;3644;53.480;10.004;2022-09-01T09:34:47;20.70;99.90
7206;DHT22;3644;53.480;10.004;2022-09-01T09:40:11;21.10;99.90
7206;DHT22;3644;53.480;10.004;2022-09-01T09:42:58;21.20;99.90
7206;DHT22;3644;53.480;10.004;2022-09-01T09:45:39;21.10;99.90
7206;DHT22;3644;53.480;10.004;2022-09-01T09:48:26;21.10;99.90
7206;DHT22;3644;53.480;10.004;2022-09-01T09:50:52;20.90;99.90
7206;DHT22;3644;53.480;10.004;2022-09-01T09:53:29;21.10;99.90
7206;DHT22;3644;53.480;10.004;2022-09-01T09:56:16;21.20;99.90
7206;DHT22;3644;53.480;10.004;2022-09-01T09:58:44;21.30;99.90
7206;DHT22;3644;53.480;10.004;2022-09-01T10:01:12;21.50;99.90
7206;DHT22;3644;53.480;10.004;2022-09-01T10:03:46;21.50;99.90
7206;DHT22;3644;53.480;10.004;2022-09-01T10:09:45;21.20;99.90
7206;DHT22;3644;53.480;10.004;2022-09-01T10:11:54;21.40;99.90
7206;DHT22;3644;53.480;10.004;2022-09-01T10:14:29;21.50;99.90
7206;DHT22;3644;53.480;10.004;2022-09-01T10:17:02;21.70;99.90
7206;DHT22;3644;53.480;10.004;2022-09-01T10:19:32;21.80;99.90
7206;DHT22;3644;53.480;10.004;2022-09-01T10:21:59;22.00;99.90
7206;DHT22;3644;53.480;10.004;2022-09-01T10:24:34;21.80;99.90
7206;DHT22;3644;53.480;10.004;2022-09-01T10:27:06;21.90;99.90
7206;DHT22;3644;53.480;10.004;2022-09-01T10:29:49;22.00;99.90
7206;DHT22;3644;53.480;10.004;2022-09-01T10:32:31;22.40;99.90
7206;DHT22;3644;53.480;10.004;2022-09-01T10:34:58;22.30;99.90
7206;DHT22;3644;53.480;10.004;2022-09-01T10:37:24;22.50;99.90
7206;DHT22;3644;53.480;10.004;2022-09-01T10:40:10;22.50;99.90
7206;DHT22;3644;53.480;10.004;2022-09-01T10:42:36;22.50;99.90
7206;DHT22;3644;53.480;10.004;2022-09-01T10:45:03;22.50;99.90
7206;DHT22;3644;53.480;10.004;2022-09-01T10:47:32;22.70;99.90
7206;DHT22;3644;53.480;10.004;2022-09-01T10:50:23;22.90;99.90
7206;DHT22;3644;53.480;10.004;2022-09-01T10:52:52;23.20;99.90
7206;DHT22;3644;53.480;10.004;2022-09-01T11:00:49;23.20;99.70
7206;DHT22;3644;53.480;10.004;2022-09-01T11:06:05;23.30;98.60
7206;DHT22;3644;53.480;10.004;2022-09-01T11:11:01;23.10;95.80
7206;DHT22;3644;53.480;10.004;2022-09-01T11:13:48;22.90;95.20
7206;DHT22;3644;53.480;10.004;2022-09-01T11:16:31;23.10;96.10
7206;DHT22;3644;53.480;10.004;2022-09-01T11:25:06;23.70;94.50
7206;DHT22;3644;53.480;10.004;2022-09-01T11:30:17;23.70;93.70
7206;DHT22;3644;53.480;10.004;2022-09-01T11:32:49;24.00;92.80
7206;DHT22;3644;53.480;10.004;2022-09-01T11:35:19;24.20;92.20
7206;DHT22;3644;53.480;10.004;2022-09-01T11:37:51;24.30;93.70
7206;DHT22;3644;53.480;10.004;2022-09-01T11:40:22;24.70;91.90
7206;DHT22;3644;53.480;10.004;2022-09-01T11:42:48;24.90;90.40
7206;DHT22;3644;53.480;10.004;2022-09-01T11:45:19;24.90;87.40
7206;DHT22;3644;53.480;10.004;2022-09-01T11:47:48;25.00;87.50
7206;DHT22;3644;53.480;10.004;2022-09-01T11:50:20;24.90;90.00
7206;DHT22;3644;53.480;10.004;2022-09-01T11:52:57;24.70;87.80
7206;DHT22;3644;53.480;10.004;2022-09-01T11:55:38;24.30;87.60
7206;DHT22;3644;53.480;10.004;2022-09-01T11:58:27;24.10;87.60
7206;DHT22;3644;53.480;10.004;2022-09-01T12:00:54;23.80;90.20
7206;DHT22;3644;53.480;10.004;2022-09-01T12:03:26;23.70;94.20
7206;DHT22;3644;53.480;10.004;2022-09-01T12:05:59;23.50;95.90
7206;DHT22;3644;53.480;10.004;2022-09-01T12:08:29;23.60;97.10
7206;DHT22;3644;53.480;10.004;2022-09-01T12:11:17;23.30;97.70
7206;DHT22;3644;53.480;10.004;2022-09-01T12:14:04;22.70;99.50
7206;DHT22;3644;53.480;10.004;2022-09-01T12:16:31;22.60;99.90
7206;DHT22;3644;53.480;10.004;2022-09-01T12:19:00;22.60;99.90
7206;DHT22;3644;53.480;10.004;2022-09-01T12:21:35;22.60;99.90
7206;DHT22;3644;53.480;10.004;2022-09-01T12:26:35;22.20;99.90
7206;DHT22;3644;53.480;10.004;2022-09-01T12:29:01;22.30;99.90
7206;DHT22;3644;53.480;10.004;2022-09-01T12:31:26;22.60;99.90
7206;DHT22;3644;53.480;10.004;2022-09-01T12:33:54;22.80;99.90
7206;DHT22;3644;53.480;10.004;2022-09-01T12:36:27;22.80;99.90
7206;DHT22;3644;53.480;10.004;2022-09-01T12:39:17;22.70;99.90
7206;DHT22;3644;53.480;10.004;2022-09-01T12:41:39;22.80;99.90
7206;DHT22;3644;53.480;10.004;2022-09-01T12:44:27;22.90;99.90
7206;DHT22;3644;53.480;10.004;2022-09-01T12:46:59;23.20;99.90
7206;DHT22;3644;53.480;10.004;2022-09-01T12:49:40;23.20;99.90
7206;DHT22;3644;53.480;10.004;2022-09-01T12:52:20;23.10;99.90
7206;DHT22;3644;53.480;10.004;2022-09-01T12:54:51;23.20;99.90
7206;DHT22;3644;53.480;10.004;2022-09-01T13:02:39;24.00;96.50
7206;DHT22;3644;53.480;10.004;2022-09-01T13:07:52;24.30;96.20
7206;DHT22;3644;53.480;10.004;2022-09-01T13:10:19;24.10;95.80
7206;DHT22;3644;53.480;10.004;2022-09-01T13:12:45;23.90;95.50
7206;DHT22;3644;53.480;10.004;2022-09-01T13:15:12;23.90;94.40
7206;DHT22;3644;53.480;10.004;2022-09-01T13:17:37;23.60;93.40
7206;DHT22;3644;53.480;10.004;2022-09-01T13:20:05;23.50;95.80
7206;DHT22;3644;53.480;10.004;2022-09-01T13:22:31;23.60;95.20
7206;DHT22;3644;53.480;10.004;2022-09-01T13:24:57;23.60;95.90
7206;DHT22;3644;53.480;10.004;2022-09-01T13:27:22;23.70;95.50
7206;DHT22;3644;53.480;10.004;2022-09-01T13:29:48;23.90;95.30
7206;DHT22;3644;53.480;10.004;2022-09-01T13:32:15;24.10;95.20
7206;DHT22;3644;53.480;10.004;2022-09-01T13:34:41;24.30;94.80
7206;DHT22;3644;53.480;10.004;2022-09-01T13:37:07;24.50;93.70
7206;DHT22;3644;53.480;10.004;2022-09-01T13:39:32;24.70;93.70
7206;DHT22;3644;53.480;10.004;2022-09-01T13:41:58;24.80;92.20
7206;DHT22;3644;53.480;10.004;2022-09-01T13:44:23;24.90;91.10
7206;DHT22;3644;53.480;10.004;2022-09-01T13:46:48;25.20;91.10
7206;DHT22;3644;53.480;10.004;2022-09-01T13:49:14;25.20;92.00
7206;DHT22;3644;53.480;10.004;2022-09-01T13:51:40;25.40;90.10
7206;DHT22;3644;53.480;10.004;2022-09-01T13:54:06;25.40;90.10
7206;DHT22;3644;53.480;10.004;2022-09-01T13:56:31;25.30;87.20
7206;DHT22;3644;53.480;10.004;2022-09-01T13:58:57;25.20;86.80
7206;DHT22;3644;53.480;10.004;2022-09-01T14:01:22;25.30;86.40
7206;DHT22;3644;53.480;10.004;2022-09-01T14:03:48;25.50;85.20
7206;DHT22;3644;53.480;10.004;2022-09-01T14:06:14;25.20;84.00
7206;DHT22;3644;53.480;10.004;2022-09-01T14:08:40;25.20;82.10
7206;DHT22;3644;53.480;10.004;2022-09-01T14:11:06;24.80;83.60
7206;DHT22;3644;53.480;10.004;2022-09-01T14:13:32;24.50;87.70
7206;DHT22;3644;53.480;10.004;2022-09-01T14:15:58;24.50;88.80
7206;DHT22;3644;53.480;10.004;2022-09-01T14:18:24;24.50;87.30
7206;DHT22;3644;53.480;10.004;2022-09-01T14:21:01;24.50;90.00
7206;DHT22;3644;53.480;10.004;2022-09-01T14:23:27;24.50;88.80
7206;DHT22;3644;53.480;10.004;2022-09-01T14:25:53;24.40;89.30
7206;DHT22;3644;53.480;10.004;2022-09-01T14:28:19;24.40;90.60
7206;DHT22;3644;53.480;10.004;2022-09-01T14:30:46;24.30;91.80
7206;DHT22;3644;53.480;10.004;2022-09-01T14:33:12;24.40;91.90
7206;DHT22;3644;53.480;10.004;2022-09-01T14:35:39;24.30;92.30
7206;DHT22;3644;53.480;10.004;2022-09-01T14:38:05;24.00;92.20
7206;DHT22;3644;53.480;10.004;2022-09-01T14:40:34;23.70;93.20
7206;DHT22;3644;53.480;10.004;2022-09-01T14:43:02;24.00;93.20
7206;DHT22;3644;53.480;10.004;2022-09-01T14:45:28;24.40;93.10
7206;DHT22;3644;53.480;10.004;2022-09-01T14:47:56;24.70;92.40
7206;DHT22;3644;53.480;10.004;2022-09-01T14:50:24;25.00;92.00
7206;DHT22;3644;53.480;10.004;2022-09-01T14:52:53;25.20;90.10
7206;DHT22;3644;53.480;10.004;2022-09-01T14:55:24;25.20;89.50
7206;DHT22;3644;53.480;10.004;2022-09-01T14:57:50;25.40;89.90
7206;DHT22;3644;53.480;10.004;2022-09-01T15:00:17;25.40;89.60
7206;DHT22;3644;53.480;10.004;2022-09-01T15:02:44;25.30;87.40
7206;DHT22;3644;53.480;10.004;2022-09-01T15:05:10;24.60;89.40
7206;DHT22;3644;53.480;10.004;2022-09-01T15:07:36;24.40;90.20
7206;DHT22;3644;53.480;10.004;2022-09-01T15:10:04;24.30;90.50
7206;DHT22;3644;53.480;10.004;2022-09-01T15:12:30;24.20;90.10
7206;DHT22;3644;53.480;10.004;2022-09-01T15:14:59;24.20;90.90
7206;DHT22;3644;53.480;10.004;2022-09-01T15:17:26;24.10;90.80
7206;DHT22;3644;53.480;10.004;2022-09-01T15:19:52;23.90;91.40
7206;DHT22;3644;53.480;10.004;2022-09-01T15:22:17;23.70;92.50
7206;DHT22;3644;53.480;10.004;2022-09-01T15:24:43;23.60;93.40
7206;DHT22;3644;53.480;10.004;2022-09-01T15:27:09;23.50;94.00
7206;DHT22;3644;53.480;10.004;2022-09-01T15:29:36;23.20;94.50
7206;DHT22;3644;53.480;10.004;2022-09-01T15:32:09;23.10;95.70
7206;DHT22;3644;53.480;10.004;2022-09-01T15:34:35;23.20;96.90
7206;DHT22;3644;53.480;10.004;2022-09-01T15:37:01;23.30;96.90
7206;DHT22;3644;53.480;10.004;2022-09-01T15:39:29;23.20;97.10
7206;DHT22;3644;53.480;10.004;2022-09-01T15:41:55;23.00;97.90
7206;DHT22;3644;53.480;10.004;2022-09-01T15:44:21;23.20;97.80
7206;DHT22;3644;53.480;10.004;2022-09-01T15:46:47;23.20;98.60
7206;DHT22;3644;53.480;10.004;2022-09-01T15:49:12;23.20;98.60
7206;DHT22;3644;53.480;10.004;2022-09-01T15:51:40;23.30;98.30
7206;DHT22;3644;53.480;10.004;2022-09-01T15:54:17;23.00;98.70
7206;DHT22;3644;53.480;10.004;2022-09-01T15:56:43;23.00;98.90
7206;DHT22;3644;53.480;10.004;2022-09-01T15:59:09;23.00;99.50
7206;DHT22;3644;53.480;10.004;2022-09-01T16:01:44;23.00;99.00
7206;DHT22;3644;53.480;10.004;2022-09-01T16:04:12;23.10;98.50
7206;DHT22;3644;53.480;10.004;2022-09-01T16:06:39;22.80;99.50
7206;DHT22;3644;53.480;10.004;2022-09-01T16:09:06;23.00;99.40
7206;DHT22;3644;53.480;10.004;2022-09-01T16:11:32;23.20;98.40
7206;DHT22;3644;53.480;10.004;2022-09-01T16:13:57;23.20;98.40
7206;DHT22;3644;53.480;10.004;2022-09-01T16:19:44;23.60;98.20
7206;DHT22;3644;53.480;10.004;2022-09-01T16:22:32;23.50;98.10
7206;DHT22;3644;53.480;10.004;2022-09-01T16:25:07;23.40;98.70
7206;DHT22;3644;53.480;10.004;2022-09-01T16:27:39;23.20;98.90
7206;DHT22;3644;53.480;10.004;2022-09-01T16:30:19;23.00;99.50
7206;DHT22;3644;53.480;10.004;2022-09-01T16:32:47;22.80;99.30
7206;DHT22;3644;53.480;10.004;2022-09-01T16:35:13;22.50;99.80
7206;DHT22;3644;53.480;10.004;2022-09-01T16:43:18;22.20;99.90
7206;DHT22;3644;53.480;10.004;2022-09-01T16:46:03;22.20;99.90
7206;DHT22;3644;53.480;10.004;2022-09-01T16:48:46;22.00;99.90
7206;DHT22;3644;53.480;10.004;2022-09-01T16:51:34;22.10;99.90
7206;DHT22;3644;53.480;10.004;2022-09-01T16:54:13;21.90;99.90